sensor_id;sensor_type;location;lat;lon;timestamp;P1;durP1;ratioP1;P2;durP2;ratioP2
16015;SDS011;8112;53.592;10.184;2023-06-22T00:03:27;4.77;;;4.30;;
16015;SDS011;8112;53.592;10.184;2023-06-22T00:08:28;4.50;;;4.10;;
16015;SDS011;8112;53.592;10.184;2023-06-22T00:13:32;4.40;;;4.00;;
16015;SDS011;8112;53.592;10.184;2023-06-22T00:18:33;4.17;;;3.60;;
16015;SDS011;8112;53.592;10.184;2023-06-22T00:23:35;5.27;;;4.07;;
16015;SDS011;8112;53.592;10.184;2023-06-22T00:28:38;5.33;;;4.53;;
16015;SDS011;8112;53.592;10.184;2023-06-22T00:33:40;4.57;;;4.03;;
16015;SDS011;8112;53.592;10.184;2023-06-22T00:38:42;4.77;;;4.37;;
16015;SDS011;8112;53.592;10.184;2023-06-22T00:43:45;4.87;;;4.20;;
16015;SDS011;8112;53.592;10.184;2023-06-22T00:48:46;4.20;;;3.87;;
16015;SDS011;8112;53.592;10.184;2023-06-22T00:53:48;4.53;;;4.13;;
16015;SDS011;8112;53.592;10.184;2023-06-22T00:58:53;5.90;;;4.17;;
16015;SDS011;8112;53.592;10.184;2023-06-22T01:03:54;6.60;;;4.23;;
16015;SDS011;8112;53.592;10.184;2023-06-22T01:09:00;4.30;;;3.90;;
16015;SDS011;8112;53.592;10.184;2023-06-22T01:14:11;4.73;;;4.33;;
16015;SDS011;8112;53.592;10.184;2023-06-22T01:19:20;4.60;;;4.20;;
16015;SDS011;8112;53.592;10.184;2023-06-22T01:24:32;5.50;;;4.03;;
16015;SDS011;8112;53.592;10.184;2023-06-22T01:29:42;4.70;;;4.30;;
16015;SDS011;8112;53.592;10.184;2023-06-22T01:34:45;5.27;;;4.77;;
16015;SDS011;8112;53.592;10.184;2023-06-22T01:39:47;5.33;;;4.80;;
16015;SDS011;8112;53.592;10.184;2023-06-22T01:44:51;4.70;;;4.30;;
16015;SDS011;8112;53.592;10.184;2023-06-22T01:49:53;5.40;;;4.90;;
16015;SDS011;8112;53.592;10.184;2023-06-22T01:54:56;5.90;;;4.63;;
16015;SDS011;8112;53.592;10.184;2023-06-22T02:00:00;5.73;;;4.77;;
16015;SDS011;8112;53.592;10.184;2023-06-22T02:05:15;6.53;;;4.47;;
16015;SDS011;8112;53.592;10.184;2023-06-22T02:10:19;4.90;;;4.30;;
16015;SDS011;8112;53.592;10.184;2023-06-22T02:15:24;5.77;;;4.70;;
16015;SDS011;8112;53.592;10.184;2023-06-22T02:20:29;5.40;;;4.90;;
16015;SDS011;8112;53.592;10.184;2023-06-22T02:25:30;4.40;;;4.10;;
16015;SDS011;8112;53.592;10.184;2023-06-22T02:30:34;5.10;;;4.60;;
16015;SDS011;8112;53.592;10.184;2023-06-22T02:35:35;9.27;;;4.90;;
16015;SDS011;8112;53.592;10.184;2023-06-22T02:40:37;5.20;;;4.70;;
16015;SDS011;8112;53.592;10.184;2023-06-22T02:45:40;4.83;;;4.43;;
16015;SDS011;8112;53.592;10.184;2023-06-22T02:50:42;5.43;;;4.27;;
16015;SDS011;8112;53.592;10.184;2023-06-22T02:55:44;5.47;;;4.80;;
16015;SDS011;8112;53.592;10.184;2023-06-22T03:00:47;6.70;;;5.10;;
16015;SDS011;8112;53.592;10.184;2023-06-22T03:05:53;5.20;;;4.60;;
16015;SDS011;8112;53.592;10.184;2023-06-22T03:10:57;6.07;;;4.87;;
16015;SDS011;8112;53.592;10.184;2023-06-22T03:16:00;7.43;;;4.60;;
16015;SDS011;8112;53.592;10.184;2023-06-22T03:21:02;5.20;;;4.70;;
16015;SDS011;8112;53.592;10.184;2023-06-22T03:26:05;8.40;;;4.87;;
16015;SDS011;8112;53.592;10.184;2023-06-22T03:31:08;8.23;;;4.90;;
16015;SDS011;8112;53.592;10.184;2023-06-22T03:36:12;5.73;;;5.00;;
16015;SDS011;8112;53.592;10.184;2023-06-22T03:41:14;5.60;;;5.03;;
16015;SDS011;8112;53.592;10.184;2023-06-22T03:46:17;6.97;;;4.70;;
16015;SDS011;8112;53.592;10.184;2023-06-22T03:51:20;6.93;;;5.23;;
16015;SDS011;8112;53.592;10.184;2023-06-22T03:56:21;7.13;;;5.03;;
16015;SDS011;8112;53.592;10.184;2023-06-22T04:01:25;8.27;;;5.23;;
16015;SDS011;8112;53.592;10.184;2023-06-22T04:06:26;6.83;;;5.13;;
16015;SDS011;8112;53.592;10.184;2023-06-22T04:11:28;6.67;;;6.03;;
16015;SDS011;8112;53.592;10.184;2023-06-22T04:16:31;7.80;;;5.43;;
16015;SDS011;8112;53.592;10.184;2023-06-22T04:21:34;6.83;;;5.87;;
16015;SDS011;8112;53.592;10.184;2023-06-22T04:26:37;6.73;;;6.03;;
16015;SDS011;8112;53.592;10.184;2023-06-22T04:31:43;6.37;;;4.23;;
16015;SDS011;8112;53.592;10.184;2023-06-22T04:36:44;6.87;;;5.30;;
16015;SDS011;8112;53.592;10.184;2023-06-22T04:41:46;8.10;;;5.70;;
16015;SDS011;8112;53.592;10.184;2023-06-22T04:46:49;6.60;;;5.90;;
16015;SDS011;8112;53.592;10.184;2023-06-22T04:51:53;9.27;;;6.77;;
16015;SDS011;8112;53.592;10.184;2023-06-22T04:56:55;8.03;;;5.80;;
16015;SDS011;8112;53.592;10.184;2023-06-22T05:01:59;7.83;;;6.10;;
16015;SDS011;8112;53.592;10.184;2023-06-22T05:07:03;6.77;;;6.00;;
16015;SDS011;8112;53.592;10.184;2023-06-22T05:12:05;6.13;;;5.63;;
16015;SDS011;8112;53.592;10.184;2023-06-22T05:17:09;6.73;;;6.13;;
16015;SDS011;8112;53.592;10.184;2023-06-22T05:22:14;6.13;;;5.53;;
16015;SDS011;8112;53.592;10.184;2023-06-22T05:27:16;7.33;;;5.80;;
16015;SDS011;8112;53.592;10.184;2023-06-22T05:32:19;8.50;;;6.30;;
16015;SDS011;8112;53.592;10.184;2023-06-22T05:37:20;7.47;;;5.37;;
16015;SDS011;8112;53.592;10.184;2023-06-22T05:42:22;5.63;;;5.00;;
16015;SDS011;8112;53.592;10.184;2023-06-22T05:47:26;9.20;;;4.60;;
16015;SDS011;8112;53.592;10.184;2023-06-22T05:52:28;6.57;;;4.33;;
16015;SDS011;8112;53.592;10.184;2023-06-22T05:57:30;4.57;;;4.00;;
16015;SDS011;8112;53.592;10.184;2023-06-22T06:02:33;4.93;;;3.87;;
16015;SDS011;8112;53.592;10.184;2023-06-22T06:07:36;4.50;;;3.57;;
16015;SDS011;8112;53.592;10.184;2023-06-22T06:12:37;3.93;;;2.83;;
16015;SDS011;8112;53.592;10.184;2023-06-22T06:17:46;2.77;;;2.50;;
16015;SDS011;8112;53.592;10.184;2023-06-22T06:22:48;4.20;;;2.90;;
16015;SDS011;8112;53.592;10.184;2023-06-22T06:27:50;3.10;;;2.73;;
16015;SDS011;8112;53.592;10.184;2023-06-22T06:32:55;2.93;;;2.40;;
16015;SDS011;8112;53.592;10.184;2023-06-22T06:37:57;2.73;;;2.47;;
16015;SDS011;8112;53.592;10.184;2023-06-22T06:42:59;2.83;;;2.40;;
16015;SDS011;8112;53.592;10.184;2023-06-22T06:48:03;4.47;;;2.53;;
16015;SDS011;8112;53.592;10.184;2023-06-22T06:53:04;3.57;;;2.53;;
16015;SDS011;8112;53.592;10.184;2023-06-22T06:58:06;3.93;;;2.90;;
16015;SDS011;8112;53.592;10.184;2023-06-22T07:03:11;3.40;;;2.63;;
16015;SDS011;8112;53.592;10.184;2023-06-22T07:08:13;3.93;;;2.83;;
16015;SDS011;8112;53.592;10.184;2023-06-22T07:13:14;3.43;;;2.73;;
16015;SDS011;8112;53.592;10.184;2023-06-22T07:18:17;4.43;;;3.20;;
16015;SDS011;8112;53.592;10.184;2023-06-22T07:23:19;3.30;;;3.00;;
16015;SDS011;8112;53.592;10.184;2023-06-22T07:28:21;6.33;;;2.97;;
16015;SDS011;8112;53.592;10.184;2023-06-22T07:33:24;4.85;;;3.03;;
16015;SDS011;8112;53.592;10.184;2023-06-22T07:38:25;3.67;;;3.10;;
16015;SDS011;8112;53.592;10.184;2023-06-22T07:43:27;3.30;;;3.00;;
16015;SDS011;8112;53.592;10.184;2023-06-22T07:48:31;3.58;;;3.03;;
16015;SDS011;8112;53.592;10.184;2023-06-22T07:53:33;4.20;;;3.03;;
16015;SDS011;8112;53.592;10.184;2023-06-22T07:58:36;2.97;;;2.47;;
16015;SDS011;8112;53.592;10.184;2023-06-22T08:03:39;4.55;;;2.70;;
16015;SDS011;8112;53.592;10.184;2023-06-22T08:08:41;3.85;;;2.95;;
16015;SDS011;8112;53.592;10.184;2023-06-22T08:13:43;2.97;;;2.72;;
16015;SDS011;8112;53.592;10.184;2023-06-22T08:18:46;3.67;;;2.60;;
16015;SDS011;8112;53.592;10.184;2023-06-22T08:23:48;3.35;;;2.60;;
16015;SDS011;8112;53.592;10.184;2023-06-22T08:28:50;3.63;;;2.38;;
16015;SDS011;8112;53.592;10.184;2023-06-22T08:33:54;2.50;;;2.25;;
16015;SDS011;8112;53.592;10.184;2023-06-22T08:38:56;3.25;;;2.05;;
16015;SDS011;8112;53.592;10.184;2023-06-22T08:44:01;2.75;;;2.28;;
16015;SDS011;8112;53.592;10.184;2023-06-22T08:49:05;3.35;;;2.17;;
16015;SDS011;8112;53.592;10.184;2023-06-22T08:54:07;4.15;;;2.22;;
16015;SDS011;8112;53.592;10.184;2023-06-22T08:59:10;2.05;;;1.83;;
16015;SDS011;8112;53.592;10.184;2023-06-22T09:04:13;4.75;;;2.60;;
16015;SDS011;8112;53.592;10.184;2023-06-22T09:09:15;9.40;;;2.50;;
16015;SDS011;8112;53.592;10.184;2023-06-22T09:14:17;3.13;;;2.08;;
16015;SDS011;8112;53.592;10.184;2023-06-22T09:19:21;2.50;;;2.30;;
16015;SDS011;8112;53.592;10.184;2023-06-22T09:24:23;3.80;;;2.40;;
16015;SDS011;8112;53.592;10.184;2023-06-22T09:29:24;4.22;;;1.80;;
16015;SDS011;8112;53.592;10.184;2023-06-22T09:34:28;4.55;;;2.80;;
16015;SDS011;8112;53.592;10.184;2023-06-22T09:39:31;3.50;;;2.50;;
16015;SDS011;8112;53.592;10.184;2023-06-22T09:44:33;3.30;;;1.83;;
16015;SDS011;8112;53.592;10.184;2023-06-22T09:49:36;2.40;;;2.08;;
16015;SDS011;8112;53.592;10.184;2023-06-22T09:54:38;2.65;;;2.30;;
16015;SDS011;8112;53.592;10.184;2023-06-22T09:59:40;4.18;;;2.92;;
16015;SDS011;8112;53.592;10.184;2023-06-22T10:04:44;3.88;;;2.83;;
16015;SDS011;8112;53.592;10.184;2023-06-22T10:09:46;3.95;;;2.63;;
16015;SDS011;8112;53.592;10.184;2023-06-22T10:14:48;2.70;;;2.20;;
16015;SDS011;8112;53.592;10.184;2023-06-22T10:19:51;3.67;;;2.50;;
16015;SDS011;8112;53.592;10.184;2023-06-22T10:24:53;2.92;;;2.53;;
16015;SDS011;8112;53.592;10.184;2023-06-22T10:29:54;8.75;;;2.88;;
16015;SDS011;8112;53.592;10.184;2023-06-22T10:34:57;2.65;;;2.42;;
16015;SDS011;8112;53.592;10.184;2023-06-22T10:39:59;3.22;;;2.42;;
16015;SDS011;8112;53.592;10.184;2023-06-22T10:45:01;2.72;;;2.17;;
16015;SDS011;8112;53.592;10.184;2023-06-22T10:50:05;3.45;;;2.72;;
16015;SDS011;8112;53.592;10.184;2023-06-22T10:55:08;6.38;;;2.40;;
16015;SDS011;8112;53.592;10.184;2023-06-22T11:00:10;4.20;;;2.90;;
16015;SDS011;8112;53.592;10.184;2023-06-22T11:05:14;3.00;;;2.50;;
16015;SDS011;8112;53.592;10.184;2023-06-22T11:10:16;3.50;;;2.58;;
16015;SDS011;8112;53.592;10.184;2023-06-22T11:15:18;3.25;;;2.58;;
16015;SDS011;8112;53.592;10.184;2023-06-22T11:20:21;3.03;;;2.63;;
16015;SDS011;8112;53.592;10.184;2023-06-22T11:25:23;4.85;;;3.05;;
16015;SDS011;8112;53.592;10.184;2023-06-22T11:30:24;4.75;;;3.10;;
16015;SDS011;8112;53.592;10.184;2023-06-22T11:35:27;2.60;;;2.40;;
16015;SDS011;8112;53.592;10.184;2023-06-22T11:40:29;3.22;;;2.70;;
16015;SDS011;8112;53.592;10.184;2023-06-22T11:45:31;3.50;;;2.78;;
16015;SDS011;8112;53.592;10.184;2023-06-22T11:50:34;3.75;;;2.95;;
16015;SDS011;8112;53.592;10.184;2023-06-22T11:55:36;4.00;;;3.70;;
16015;SDS011;8112;53.592;10.184;2023-06-22T12:00:37;4.35;;;2.90;;
16015;SDS011;8112;53.592;10.184;2023-06-22T12:05:40;7.50;;;3.75;;
16015;SDS011;8112;53.592;10.184;2023-06-22T12:10:42;3.72;;;3.30;;
16015;SDS011;8112;53.592;10.184;2023-06-22T12:15:44;3.83;;;3.45;;
16015;SDS011;8112;53.592;10.184;2023-06-22T12:20:47;4.07;;;3.67;;
16015;SDS011;8112;53.592;10.184;2023-06-22T12:25:49;4.43;;;3.30;;
16015;SDS011;8112;53.592;10.184;2023-06-22T12:30:51;3.33;;;3.03;;
16015;SDS011;8112;53.592;10.184;2023-06-22T12:35:54;3.20;;;2.90;;
16015;SDS011;8112;53.592;10.184;2023-06-22T12:40:55;4.28;;;3.60;;
16015;SDS011;8112;53.592;10.184;2023-06-22T12:45:57;4.40;;;3.92;;
16015;SDS011;8112;53.592;10.184;2023-06-22T12:51:00;3.72;;;3.40;;
16015;SDS011;8112;53.592;10.184;2023-06-22T12:56:02;4.85;;;3.67;;
16015;SDS011;8112;53.592;10.184;2023-06-22T13:01:04;4.68;;;3.25;;
16015;SDS011;8112;53.592;10.184;2023-06-22T13:06:07;5.43;;;3.60;;
16015;SDS011;8112;53.592;10.184;2023-06-22T13:11:08;4.63;;;3.50;;
16015;SDS011;8112;53.592;10.184;2023-06-22T13:16:10;3.80;;;3.47;;
16015;SDS011;8112;53.592;10.184;2023-06-22T13:21:13;3.90;;;3.42;;
16015;SDS011;8112;53.592;10.184;2023-06-22T13:26:15;4.55;;;3.65;;
16015;SDS011;8112;53.592;10.184;2023-06-22T13:31:17;4.57;;;3.65;;
16015;SDS011;8112;53.592;10.184;2023-06-22T13:36:20;3.47;;;3.13;;
16015;SDS011;8112;53.592;10.184;2023-06-22T13:41:23;5.05;;;3.70;;
16015;SDS011;8112;53.592;10.184;2023-06-22T13:46:25;3.53;;;3.22;;
16015;SDS011;8112;53.592;10.184;2023-06-22T13:51:28;4.43;;;3.78;;
16015;SDS011;8112;53.592;10.184;2023-06-22T13:56:29;4.53;;;4.07;;
16015;SDS011;8112;53.592;10.184;2023-06-22T14:01:31;3.88;;;3.35;;
16015;SDS011;8112;53.592;10.184;2023-06-22T14:06:34;3.78;;;3.42;;
16015;SDS011;8112;53.592;10.184;2023-06-22T14:11:36;20.63;;;4.43;;
16015;SDS011;8112;53.592;10.184;2023-06-22T14:16:38;4.43;;;3.40;;
16015;SDS011;8112;53.592;10.184;2023-06-22T14:21:41;4.13;;;3.72;;
16015;SDS011;8112;53.592;10.184;2023-06-22T14:26:43;3.60;;;3.30;;
16015;SDS011;8112;53.592;10.184;2023-06-22T14:31:45;4.18;;;3.70;;
16015;SDS011;8112;53.592;10.184;2023-06-22T14:36:48;4.47;;;4.07;;
16015;SDS011;8112;53.592;10.184;2023-06-22T14:41:50;5.07;;;3.83;;
16015;SDS011;8112;53.592;10.184;2023-06-22T14:46:52;4.35;;;3.95;;
16015;SDS011;8112;53.592;10.184;2023-06-22T14:51:55;5.63;;;4.50;;
16015;SDS011;8112;53.592;10.184;2023-06-22T14:56:57;4.47;;;3.85;;
16015;SDS011;8112;53.592;10.184;2023-06-22T15:01:58;8.68;;;3.95;;
16015;SDS011;8112;53.592;10.184;2023-06-22T15:07:01;5.03;;;4.50;;
16015;SDS011;8112;53.592;10.184;2023-06-22T15:12:03;4.85;;;3.83;;
16015;SDS011;8112;53.592;10.184;2023-06-22T15:17:08;4.30;;;3.75;;
16015;SDS011;8112;53.592;10.184;2023-06-22T15:22:11;4.25;;;3.60;;
16015;SDS011;8112;53.592;10.184;2023-06-22T15:27:13;3.85;;;3.45;;
16015;SDS011;8112;53.592;10.184;2023-06-22T15:32:15;5.15;;;3.97;;
16015;SDS011;8112;53.592;10.184;2023-06-22T15:37:18;2.95;;;2.72;;
16015;SDS011;8112;53.592;10.184;2023-06-22T15:42:19;3.92;;;3.13;;
16015;SDS011;8112;53.592;10.184;2023-06-22T15:47:21;4.28;;;3.42;;
16015;SDS011;8112;53.592;10.184;2023-06-22T15:52:24;3.72;;;2.97;;
16015;SDS011;8112;53.592;10.184;2023-06-22T15:57:26;3.85;;;2.75;;
16015;SDS011;8112;53.592;10.184;2023-06-22T16:02:29;4.05;;;2.97;;
16015;SDS011;8112;53.592;10.184;2023-06-22T16:07:32;3.08;;;2.72;;
16015;SDS011;8112;53.592;10.184;2023-06-22T16:12:34;3.00;;;2.67;;
16015;SDS011;8112;53.592;10.184;2023-06-22T16:17:36;4.97;;;3.08;;
16015;SDS011;8112;53.592;10.184;2023-06-22T16:22:40;4.47;;;2.67;;
16015;SDS011;8112;53.592;10.184;2023-06-22T16:27:43;4.47;;;2.80;;
16015;SDS011;8112;53.592;10.184;2023-06-22T16:32:51;6.60;;;2.80;;
16015;SDS011;8112;53.592;10.184;2023-06-22T16:37:55;2.75;;;2.47;;
16015;SDS011;8112;53.592;10.184;2023-06-22T16:42:57;3.93;;;2.63;;
16015;SDS011;8112;53.592;10.184;2023-06-22T16:47:59;2.40;;;2.20;;
16015;SDS011;8112;53.592;10.184;2023-06-22T16:53:02;3.13;;;2.80;;
16015;SDS011;8112;53.592;10.184;2023-06-22T16:58:03;3.27;;;2.60;;
16015;SDS011;8112;53.592;10.184;2023-06-22T17:03:05;6.63;;;2.50;;
16015;SDS011;8112;53.592;10.184;2023-06-22T17:08:12;2.90;;;2.37;;
16015;SDS011;8112;53.592;10.184;2023-06-22T17:13:15;3.15;;;2.85;;
16015;SDS011;8112;53.592;10.184;2023-06-22T17:18:17;2.80;;;2.45;;
16015;SDS011;8112;53.592;10.184;2023-06-22T17:23:22;3.43;;;2.30;;
16015;SDS011;8112;53.592;10.184;2023-06-22T17:28:25;3.73;;;2.67;;
16015;SDS011;8112;53.592;10.184;2023-06-22T17:33:27;3.00;;;2.70;;
16015;SDS011;8112;53.592;10.184;2023-06-22T17:38:30;3.13;;;2.83;;
16015;SDS011;8112;53.592;10.184;2023-06-22T17:43:32;2.53;;;2.33;;
16015;SDS011;8112;53.592;10.184;2023-06-22T17:48:34;4.37;;;2.40;;
16015;SDS011;8112;53.592;10.184;2023-06-22T17:53:37;3.17;;;2.17;;
16015;SDS011;8112;53.592;10.184;2023-06-22T17:58:38;2.30;;;2.10;;
16015;SDS011;8112;53.592;10.184;2023-06-22T18:03:40;2.93;;;2.07;;
16015;SDS011;8112;53.592;10.184;2023-06-22T18:08:43;2.27;;;2.03;;
16015;SDS011;8112;53.592;10.184;2023-06-22T18:13:46;2.80;;;1.83;;
16015;SDS011;8112;53.592;10.184;2023-06-22T18:18:49;4.10;;;1.60;;
16015;SDS011;8112;53.592;10.184;2023-06-22T18:23:52;2.73;;;1.83;;
16015;SDS011;8112;53.592;10.184;2023-06-22T18:28:55;2.77;;;1.50;;
16015;SDS011;8112;53.592;10.184;2023-06-22T18:33:57;3.07;;;1.70;;
16015;SDS011;8112;53.592;10.184;2023-06-22T18:39:01;1.70;;;1.60;;
16015;SDS011;8112;53.592;10.184;2023-06-22T18:44:10;1.53;;;1.43;;
16015;SDS011;8112;53.592;10.184;2023-06-22T18:49:14;2.80;;;1.80;;
16015;SDS011;8112;53.592;10.184;2023-06-22T18:54:19;2.10;;;1.90;;
16015;SDS011;8112;53.592;10.184;2023-06-22T19:05:05;1.57;;;1.47;;
16015;SDS011;8112;53.592;10.184;2023-06-22T19:10:22;3.10;;;1.17;;
16015;SDS011;8112;53.592;10.184;2023-06-22T19:15:29;1.27;;;1.03;;
16015;SDS011;8112;53.592;10.184;2023-06-22T19:20:33;1.40;;;1.30;;
16015;SDS011;8112;53.592;10.184;2023-06-22T19:25:36;1.20;;;1.00;;
16015;SDS011;8112;53.592;10.184;2023-06-22T19:30:46;1.10;;;1.00;;
16015;SDS011;8112;53.592;10.184;2023-06-22T19:35:49;1.83;;;1.10;;
16015;SDS011;8112;53.592;10.184;2023-06-22T19:40:53;2.13;;;1.37;;
16015;SDS011;8112;53.592;10.184;2023-06-22T19:45:55;1.10;;;1.00;;
16015;SDS011;8112;53.592;10.184;2023-06-22T19:51:01;1.17;;;0.93;;
16015;SDS011;8112;53.592;10.184;2023-06-22T19:56:06;3.57;;;1.30;;
16015;SDS011;8112;53.592;10.184;2023-06-22T20:01:07;1.20;;;0.90;;
16015;SDS011;8112;53.592;10.184;2023-06-22T20:06:09;1.60;;;1.37;;
16015;SDS011;8112;53.592;10.184;2023-06-22T20:11:13;1.03;;;0.83;;
16015;SDS011;8112;53.592;10.184;2023-06-22T20:16:16;2.57;;;1.23;;
16015;SDS011;8112;53.592;10.184;2023-06-22T20:21:19;2.67;;;1.27;;
16015;SDS011;8112;53.592;10.184;2023-06-22T20:26:22;1.23;;;1.07;;
16015;SDS011;8112;53.592;10.184;2023-06-22T20:31:24;2.27;;;1.10;;
16015;SDS011;8112;53.592;10.184;2023-06-22T20:36:29;4.07;;;1.50;;
16015;SDS011;8112;53.592;10.184;2023-06-22T20:41:33;1.57;;;1.23;;
16015;SDS011;8112;53.592;10.184;2023-06-22T20:46:35;1.77;;;1.43;;
16015;SDS011;8112;53.592;10.184;2023-06-22T20:51:37;4.40;;;1.60;;
16015;SDS011;8112;53.592;10.184;2023-06-22T20:56:40;2.00;;;1.80;;
16015;SDS011;8112;53.592;10.184;2023-06-22T21:01:41;3.30;;;2.03;;
16015;SDS011;8112;53.592;10.184;2023-06-22T21:06:46;7.73;;;3.70;;
16015;SDS011;8112;53.592;10.184;2023-06-22T21:11:49;10.13;;;3.10;;
16015;SDS011;8112;53.592;10.184;2023-06-22T21:16:51;7.40;;;3.27;;
16015;SDS011;8112;53.592;10.184;2023-06-22T21:21:56;5.17;;;2.80;;
16015;SDS011;8112;53.592;10.184;2023-06-22T21:26:59;5.37;;;3.03;;
16015;SDS011;8112;53.592;10.184;2023-06-22T21:32:01;5.03;;;3.00;;
16015;SDS011;8112;53.592;10.184;2023-06-22T21:37:08;4.93;;;3.03;;
16015;SDS011;8112;53.592;10.184;2023-06-22T21:42:13;3.70;;;3.20;;
16015;SDS011;8112;53.592;10.184;2023-06-22T21:47:15;3.77;;;3.37;;
16015;SDS011;8112;53.592;10.184;2023-06-22T21:52:17;7.77;;;3.60;;
16015;SDS011;8112;53.592;10.184;2023-06-22T21:57:20;5.50;;;4.10;;
16015;SDS011;8112;53.592;10.184;2023-06-22T22:02:26;5.33;;;4.13;;
16015;SDS011;8112;53.592;10.184;2023-06-22T22:07:28;5.17;;;4.10;;
16015;SDS011;8112;53.592;10.184;2023-06-22T22:12:32;6.00;;;4.10;;
16015;SDS011;8112;53.592;10.184;2023-06-22T22:17:34;5.87;;;4.33;;
16015;SDS011;8112;53.592;10.184;2023-06-22T22:22:36;4.43;;;4.03;;
16015;SDS011;8112;53.592;10.184;2023-06-22T22:27:39;6.60;;;4.63;;
16015;SDS011;8112;53.592;10.184;2023-06-22T22:32:41;5.77;;;5.00;;
16015;SDS011;8112;53.592;10.184;2023-06-22T22:37:42;6.63;;;5.40;;
16015;SDS011;8112;53.592;10.184;2023-06-22T22:42:46;8.80;;;5.03;;
16015;SDS011;8112;53.592;10.184;2023-06-22T22:47:47;5.30;;;4.80;;
16015;SDS011;8112;53.592;10.184;2023-06-22T22:52:49;5.53;;;5.03;;
16015;SDS011;8112;53.592;10.184;2023-06-22T22:57:52;8.43;;;5.23;;
16015;SDS011;8112;53.592;10.184;2023-06-22T23:02:54;6.77;;;5.13;;
16015;SDS011;8112;53.592;10.184;2023-06-22T23:07:58;7.33;;;5.77;;
16015;SDS011;8112;53.592;10.184;2023-06-22T23:13:02;7.40;;;6.13;;
16015;SDS011;8112;53.592;10.184;2023-06-22T23:18:04;7.60;;;6.17;;
16015;SDS011;8112;53.592;10.184;2023-06-22T23:23:08;12.50;;;6.27;;
16015;SDS011;8112;53.592;10.184;2023-06-22T23:28:15;10.03;;;6.27;;
16015;SDS011;8112;53.592;10.184;2023-06-22T23:33:27;10.10;;;6.47;;
16015;SDS011;8112;53.592;10.184;2023-06-22T23:38:37;11.30;;;6.80;;
16015;SDS011;8112;53.592;10.184;2023-06-22T23:43:56;8.87;;;6.43;;
16015;SDS011;8112;53.592;10.184;2023-06-22T23:49:01;11.07;;;6.93;;
16015;SDS011;8112;53.592;10.184;2023-06-22T23:54:14;7.93;;;7.00;;
16015;SDS011;8112;53.592;10.184;2023-06-22T23:59:36;10.23;;;7.13;;
